Dessau, Texas
Current Conditions -  °F | °C
As of 2:35 AM on Saturday 29 Nov 2014 (Local Time) from KEDC Reporting Station
Broken Clouds Broken Clouds  
Wind Chill: 55°   Ceiling: 3100
Heat Index: 55°   Visibility: 10mi
Dew Point: 54°   Wind: 10mph
Humidity: 94%   Direction: 210°SSW
Pressure: 30.07"   Gusts: NA
Location:  30.3795°N, 97.676°W
Report Text: KEDC 290835Z AUTO 21009KT 10SM BKN031 BKN035 13/12 A3007 RMK AO2
Loading
Personal Weather Stations






























Interactive Weather Map New forecast layout! Learn more

10-Day Weather Forecast

Advertisements
Track Severe Weather on mobile